A- A+ FrançaisEnglishEspañol中国

Services sur Internet Soldes sur Internet Des idées de cadeaux Météo Météo aéro

La météo à : Autours de vous Tarbes-Lourdes-PyrénéesMontpellier-Frejorgues Brest-Guipavas Bordeaux-Yvrac

manche à air

La météo aéronautique pour les pilotes, la préparation du vol avec les METAR (METeorological Aerodrome Report, message d'observation des conditions météorologiques pour l'aviation) et Les TAF (Terminal Aerodrome Forecast : message de prévision à court terme des conditions météorologiques pour l'aviation). Et les autres ressources comme les VAC (Visual Approch Chart) et les NOTAM (Notice To Airman) pour préprer les vols.

Aéroport Yamoussoukro (Côte d'Ivoire) / OACI DIYO/ IATA ASK

L'altitude de l'aéroport Yamoussoukro est de 213 m = 699 ft. Il est situé à proximité de Yamoussoukro (Côte d'Ivoire). La météo générale à 5 jours est disponible pour Bouafle situé à 42.9 km.

METAR de l'aéroport Yamoussoukro - DIYO

DIYO 271300Z 22004KT 9999 BKN015 32/25 Q1011 NOSIG

Décodage du METAR de l'aéroport Yamoussoukro (CI)

METAR émis par DIYO le mercredi 27 novembre 2019 à 13:00 heure TU. Attention ce METAR est obsolète car il a été émis il y a 19 heure et 0 minutes.

La visibilité est de supérieure à 10 km = supérieure à 6.2 sm.

La température est de 32°C = 90 °F et le point rosée est de 25°C = 77 °F . Ce qui correspond à 67% d'humidité relative.

Le QNH est de 1011 hPa = 29.85 inHg

Vent de 4 kt = 7 km/h, orienté à 220°.

Nuages : Couverture nuageuse fragmentée à 1500 ft = 460 mètres.

Aucun changement significatif dans les deux heures à venir

TAF de l'aéroport Yamoussoukro - DIYO

DIYO 110500Z 1106/1206 26003KT 6000 FEW010

DIYO 110500Z 1106/1206 26003KT 6000 quelques nuages à 010

Aéroport à proximité de Yamoussoukro

Météo générale à 5 jours à Bouafle (42.9 km)Aéroport Dimbokro Ville (85 km)Aéroport Bocanda (93 km)Aéroport Bouake (98 km)Aéroport Gagnoa (107 km)Aéroport Daloa (123 km)Aéroport Seguela (190 km)

Vue aérienne de l'aéroport Yamoussoukro

NOTAM de l'aéroport Yamoussoukro

Les NOTAM sont fournis sans aucune garantie de leur actualité. Le pilote est le seul responsable de la vérification de sa validité avant de l'utiliser opérationnellement pour préparer un vol ou l'utiliser lors de sa navigation.

Pas de NOTAM

Sources des données